createdAt,value
2022-12-08T00:00:09.576Z,19.70
2022-12-08T00:03:15.518Z,18.35
2022-12-08T00:06:42.927Z,18.83
2022-12-08T00:09:45.675Z,18.67
2022-12-08T00:12:48.441Z,19.73
2022-12-08T00:15:51.139Z,20.50
2022-12-08T00:18:53.915Z,20.08
2022-12-08T00:21:57.338Z,20.40
2022-12-08T00:25:00.295Z,19.80
2022-12-08T00:28:03.402Z,19.50
2022-12-08T00:31:10.978Z,19.73
2022-12-08T00:34:15.046Z,20.05
2022-12-08T00:37:17.769Z,19.27
2022-12-08T00:40:20.486Z,20.20
2022-12-08T00:43:23.228Z,19.80
2022-12-08T00:46:26.109Z,20.43
2022-12-08T00:49:29.062Z,19.38
2022-12-08T00:52:31.974Z,19.10
2022-12-08T00:55:34.697Z,19.60
2022-12-08T00:58:37.588Z,21.60
2022-12-08T01:01:40.395Z,22.17
2022-12-08T01:04:43.411Z,21.35
2022-12-08T01:07:46.308Z,21.85
2022-12-08T01:10:49.130Z,21.35
2022-12-08T01:13:51.987Z,22.90
2022-12-08T01:16:54.981Z,21.03
2022-12-08T01:19:57.741Z,21.77
2022-12-08T01:23:00.605Z,20.75
2022-12-08T01:26:05.188Z,20.73
2022-12-08T01:29:08.382Z,21.20
2022-12-08T01:32:11.274Z,22.70
2022-12-08T01:35:14.359Z,23.00
2022-12-08T01:38:17.449Z,24.25
2022-12-08T01:41:22.830Z,23.85
2022-12-08T01:44:25.583Z,23.23
2022-12-08T01:47:34.993Z,21.67
2022-12-08T01:50:40.066Z,22.92
2022-12-08T01:53:43.543Z,22.13
2022-12-08T01:57:11.990Z,21.48
2022-12-08T02:00:17.652Z,22.33
2022-12-08T02:03:59.138Z,22.80
2022-12-08T02:07:07.821Z,23.08
2022-12-08T02:10:14.534Z,23.52
2022-12-08T02:13:19.318Z,24.80
2022-12-08T02:16:22.188Z,24.93
2022-12-08T02:20:03.814Z,23.80
2022-12-08T02:23:11.277Z,22.42
2022-12-08T02:26:35.427Z,23.70
2022-12-08T02:30:07.803Z,24.00
2022-12-08T02:33:31.398Z,23.53
2022-12-08T02:36:47.423Z,23.10
2022-12-08T02:40:22.996Z,22.70
2022-12-08T02:43:47.775Z,22.45
2022-12-08T02:47:06.149Z,21.80
2022-12-08T02:50:09.993Z,23.27
2022-12-08T02:56:17.361Z,22.75
2022-12-08T02:59:33.895Z,23.10
2022-12-08T03:03:02.564Z,23.58
2022-12-08T03:06:24.097Z,22.00
2022-12-08T03:09:46.996Z,23.70
2022-12-08T03:12:57.748Z,23.60
2022-12-08T03:16:04.826Z,23.33
2022-12-08T03:19:21.332Z,24.30
2022-12-08T03:22:27.790Z,25.30
2022-12-08T03:25:33.764Z,22.90
2022-12-08T03:28:36.642Z,23.58
2022-12-08T03:31:44.618Z,23.77
2022-12-08T03:34:51.029Z,23.33
2022-12-08T03:38:09.115Z,22.33
2022-12-08T03:41:21.322Z,23.00
2022-12-08T03:44:24.190Z,24.90
2022-12-08T03:47:26.996Z,23.83
2022-12-08T03:50:29.849Z,26.50
2022-12-08T03:53:32.578Z,23.90
2022-12-08T03:56:38.281Z,24.77
2022-12-08T03:59:41.366Z,26.10
2022-12-08T04:02:44.252Z,25.15
2022-12-08T04:05:47.018Z,25.88
2022-12-08T04:08:51.122Z,25.73
2022-12-08T04:11:53.874Z,26.03
2022-12-08T04:14:56.558Z,27.63
2022-12-08T04:17:59.377Z,26.17
2022-12-08T04:21:02.843Z,25.67
2022-12-08T04:24:05.841Z,25.47
2022-12-08T04:27:08.682Z,26.50
2022-12-08T04:30:12.116Z,23.45
2022-12-08T04:33:14.865Z,23.98
2022-12-08T04:36:17.660Z,23.45
2022-12-08T04:39:21.386Z,24.17
2022-12-08T04:42:24.121Z,25.30
2022-12-08T04:45:26.961Z,23.38
2022-12-08T04:48:29.959Z,23.40
2022-12-08T04:51:32.745Z,21.50
2022-12-08T04:54:35.571Z,21.07
2022-12-08T04:57:38.392Z,20.10
2022-12-08T05:00:41.609Z,21.50
2022-12-08T05:03:44.401Z,21.63
2022-12-08T05:06:47.185Z,19.77
2022-12-08T05:09:49.969Z,20.30
2022-12-08T05:12:52.883Z,21.00
2022-12-08T05:16:06.159Z,21.80
2022-12-08T05:19:09.539Z,23.77
2022-12-08T05:22:12.498Z,24.00
2022-12-08T05:25:15.544Z,23.50
2022-12-08T05:28:40.735Z,24.83
2022-12-08T05:31:41.242Z,22.20
2022-12-08T05:34:44.156Z,22.05
2022-12-08T05:37:47.010Z,21.23
2022-12-08T05:40:49.839Z,21.67
2022-12-08T05:43:52.650Z,21.03
2022-12-08T05:46:55.504Z,21.98
2022-12-08T05:49:58.303Z,23.02
2022-12-08T05:53:01.076Z,24.05
2022-12-08T05:56:04.040Z,23.53
2022-12-08T05:59:07.589Z,23.23
2022-12-08T06:02:10.397Z,24.23
2022-12-08T06:05:13.438Z,24.35
2022-12-08T06:08:16.452Z,24.60
2022-12-08T06:11:21.566Z,25.67
2022-12-08T06:14:24.435Z,25.13
2022-12-08T06:17:27.274Z,25.20
2022-12-08T06:20:30.085Z,25.40
2022-12-08T06:23:32.863Z,23.83
2022-12-08T06:26:36.253Z,23.87
2022-12-08T06:29:39.373Z,20.17
2022-12-08T06:32:42.441Z,23.02
2022-12-08T06:35:45.291Z,23.23
2022-12-08T06:38:48.627Z,24.77
2022-12-08T06:42:09.810Z,24.57
2022-12-08T06:45:17.112Z,25.00
2022-12-08T06:48:20.032Z,23.20
2022-12-08T06:51:25.716Z,24.45
2022-12-08T06:54:28.771Z,23.67
2022-12-08T06:57:31.820Z,22.50
2022-12-08T07:00:34.658Z,23.13
2022-12-08T07:03:38.702Z,22.95
2022-12-08T07:06:41.802Z,25.05
2022-12-08T07:09:44.963Z,23.30
2022-12-08T07:12:48.081Z,22.37
2022-12-08T07:15:52.607Z,22.30
2022-12-08T07:18:57.061Z,21.13
2022-12-08T07:22:00.743Z,20.67
2022-12-08T07:25:03.776Z,20.23
2022-12-08T07:28:13.090Z,21.50
2022-12-08T07:31:26.973Z,20.03
2022-12-08T07:34:33.751Z,19.17
2022-12-08T07:37:38.264Z,19.25
2022-12-08T07:40:41.288Z,20.50
2022-12-08T07:43:48.207Z,20.37
2022-12-08T07:46:51.372Z,18.77
2022-12-08T07:49:54.474Z,19.05
2022-12-08T07:52:58.533Z,19.10
2022-12-08T07:56:01.355Z,20.08
2022-12-08T07:59:04.563Z,20.53
2022-12-08T08:02:24.290Z,19.47
2022-12-08T08:05:28.537Z,18.55
2022-12-08T08:08:34.780Z,19.05
2022-12-08T08:11:37.995Z,19.95
2022-12-08T08:14:40.879Z,20.43
2022-12-08T08:17:43.644Z,19.23
2022-12-08T08:20:46.514Z,19.20
2022-12-08T08:23:49.570Z,18.42
2022-12-08T08:26:53.726Z,18.67
2022-12-08T08:29:56.684Z,19.57
2022-12-08T08:33:01.225Z,18.87
2022-12-08T08:36:08.412Z,20.83
2022-12-08T08:39:11.269Z,18.15
2022-12-08T08:42:15.671Z,20.27
2022-12-08T08:45:18.547Z,18.33
2022-12-08T08:48:21.603Z,20.63
2022-12-08T08:51:24.596Z,19.13
2022-12-08T08:54:29.629Z,19.83
2022-12-08T08:57:32.609Z,20.90
2022-12-08T09:00:35.404Z,20.37
2022-12-08T09:03:38.808Z,19.60
2022-12-08T09:06:45.586Z,19.83
2022-12-08T09:09:50.398Z,21.33
2022-12-08T09:12:53.415Z,19.08
2022-12-08T09:15:56.594Z,19.67
2022-12-08T09:19:00.649Z,20.17
2022-12-08T09:23:04.760Z,19.65
2022-12-08T09:26:09.350Z,18.30
2022-12-08T09:29:13.971Z,18.80
2022-12-08T09:32:17.065Z,17.33
2022-12-08T09:35:20.135Z,18.10
2022-12-08T09:38:23.219Z,18.27
2022-12-08T09:41:38.779Z,16.48
2022-12-08T09:45:10.015Z,17.05
2022-12-08T09:48:15.518Z,17.63
2022-12-08T09:51:18.891Z,16.83
2022-12-08T09:54:35.208Z,16.63
2022-12-08T09:57:38.388Z,15.43
2022-12-08T10:00:41.173Z,15.20
2022-12-08T10:03:44.085Z,16.10
2022-12-08T10:06:53.228Z,16.50
2022-12-08T10:10:04.749Z,16.65
2022-12-08T10:13:22.115Z,16.73
2022-12-08T10:16:35.099Z,15.65
2022-12-08T10:19:40.869Z,14.90
2022-12-08T10:22:49.965Z,14.00
2022-12-08T10:26:01.087Z,14.35
2022-12-08T10:29:04.083Z,13.75
2022-12-08T10:32:17.235Z,14.07
2022-12-08T10:35:23.043Z,14.17
2022-12-08T10:38:36.373Z,14.43
2022-12-08T10:41:40.438Z,14.32
2022-12-08T10:45:24.909Z,14.63
2022-12-08T10:48:33.383Z,14.48
2022-12-08T10:51:42.097Z,15.13
2022-12-08T10:54:46.835Z,14.80
2022-12-08T10:57:50.780Z,13.10
2022-12-08T11:01:03.216Z,13.68
2022-12-08T11:04:18.853Z,12.50
2022-12-08T11:07:23.682Z,12.33
2022-12-08T11:10:37.753Z,13.40
2022-12-08T11:13:42.356Z,13.20
2022-12-08T11:16:45.725Z,12.48
2022-12-08T11:20:12.608Z,12.63
2022-12-08T11:27:59.882Z,11.97
2022-12-08T11:31:21.075Z,12.57
2022-12-08T11:34:38.987Z,11.75
2022-12-08T11:37:43.827Z,11.75
2022-12-08T11:40:53.462Z,12.37
2022-12-08T11:44:24.631Z,13.57
2022-12-08T11:47:41.332Z,13.35
2022-12-08T11:50:52.991Z,12.23
2022-12-08T11:54:28.870Z,12.57
2022-12-08T11:57:32.341Z,11.50
2022-12-08T12:00:35.680Z,11.87
2022-12-08T12:04:04.688Z,11.35
2022-12-08T12:07:42.026Z,12.05
2022-12-08T12:11:09.582Z,13.00
2022-12-08T12:14:12.384Z,15.47
2022-12-08T12:17:40.692Z,14.47
2022-12-08T12:21:06.785Z,13.88
2022-12-08T12:24:30.496Z,15.23
2022-12-08T12:27:41.559Z,13.88
2022-12-08T12:31:15.924Z,14.30
2022-12-08T12:34:24.305Z,13.83
2022-12-08T12:37:39.137Z,14.27
2022-12-08T12:40:42.322Z,14.48
2022-12-08T12:44:10.564Z,13.35
2022-12-08T12:47:15.121Z,13.37
2022-12-08T12:50:33.565Z,14.47
2022-12-08T12:53:36.420Z,13.80
2022-12-08T12:57:08.635Z,13.35
2022-12-08T13:00:20.458Z,12.80
2022-12-08T13:03:25.023Z,12.13
2022-12-08T13:06:44.988Z,13.23
2022-12-08T13:10:33.854Z,12.25
2022-12-08T13:13:57.311Z,12.90
2022-12-08T13:17:02.297Z,14.57
2022-12-08T13:20:17.708Z,17.30
2022-12-08T13:23:57.807Z,16.43
2022-12-08T13:27:14.833Z,15.18
2022-12-08T13:30:45.409Z,12.38
2022-12-08T13:33:48.562Z,13.02
2022-12-08T13:37:00.424Z,12.57
2022-12-08T13:40:16.395Z,13.20
2022-12-08T13:43:52.444Z,13.30
2022-12-08T13:47:32.916Z,12.82
2022-12-08T13:51:55.004Z,13.27
2022-12-08T13:57:35.800Z,12.63
2022-12-08T14:00:39.416Z,13.07
2022-12-08T14:04:42.148Z,14.15
2022-12-08T14:07:22.959Z,14.00
2022-12-08T14:10:30.583Z,14.30
2022-12-08T14:13:34.262Z,13.63
2022-12-08T14:16:49.822Z,15.30
2022-12-08T14:20:02.141Z,16.02
2022-12-08T14:23:07.863Z,16.70
2022-12-08T14:26:12.845Z,16.60
2022-12-08T14:29:40.067Z,15.90
2022-12-08T14:32:58.802Z,17.02
2022-12-08T14:36:01.599Z,14.93
2022-12-08T14:39:04.456Z,16.80
2022-12-08T14:42:07.912Z,16.37
2022-12-08T14:45:13.252Z,16.07
2022-12-08T14:48:29.660Z,15.27
2022-12-08T14:51:33.729Z,14.73
2022-12-08T14:54:36.660Z,15.35
2022-12-08T14:57:39.851Z,15.77
2022-12-08T15:00:50.182Z,17.37
2022-12-08T15:03:55.655Z,16.40
2022-12-08T15:07:04.890Z,16.40
2022-12-08T15:10:10.219Z,16.58
2022-12-08T15:13:13.075Z,15.53
2022-12-08T15:16:27.237Z,17.67
2022-12-08T15:19:33.429Z,16.70
2022-12-08T15:22:36.286Z,19.92
2022-12-08T15:25:39.076Z,17.55
2022-12-08T15:28:41.931Z,17.13
2022-12-08T15:31:44.964Z,17.27
2022-12-08T15:34:48.370Z,18.30
2022-12-08T15:37:51.250Z,19.90
2022-12-08T15:40:55.290Z,17.88
2022-12-08T15:43:58.209Z,18.67
2022-12-08T15:47:01.229Z,18.70
2022-12-08T15:50:05.017Z,19.42
2022-12-08T15:53:10.754Z,21.02
2022-12-08T15:56:30.104Z,24.83
2022-12-08T15:59:33.227Z,25.50
2022-12-08T16:03:04.938Z,28.47
2022-12-08T16:06:50.808Z,33.50
2022-12-08T16:09:41.595Z,30.33
2022-12-08T16:16:29.310Z,27.63
2022-12-08T16:19:32.052Z,24.47
2022-12-08T16:29:22.713Z,17.95
2022-12-08T16:32:27.152Z,21.93
2022-12-08T16:35:30.825Z,20.30
2022-12-08T16:38:36.029Z,76.85
2022-12-08T16:42:01.192Z,52.22
2022-12-08T16:45:10.145Z,44.85
2022-12-08T16:48:14.811Z,38.07
2022-12-08T16:51:26.481Z,33.47
2022-12-08T16:54:30.288Z,31.67
2022-12-08T16:57:33.018Z,31.38
2022-12-08T17:00:38.733Z,28.10
2022-12-08T17:03:51.736Z,27.03
2022-12-08T17:07:05.806Z,26.63
2022-12-08T17:10:10.903Z,27.40
2022-12-08T17:13:16.997Z,28.83
2022-12-08T17:16:20.420Z,27.50
2022-12-08T17:19:23.449Z,27.03
2022-12-08T17:22:26.481Z,29.27
2022-12-08T17:25:29.363Z,33.08
2022-12-08T17:28:58.853Z,35.22
2022-12-08T17:31:55.472Z,41.42
2022-12-08T17:34:58.474Z,47.10
2022-12-08T17:38:01.251Z,41.53
2022-12-08T17:41:07.294Z,104.88
2022-12-08T17:44:12.319Z,79.97
2022-12-08T17:47:15.078Z,71.82
2022-12-08T17:50:18.254Z,80.73
2022-12-08T17:53:22.158Z,77.27
2022-12-08T17:56:25.018Z,82.78
2022-12-08T17:59:29.052Z,96.03
2022-12-08T18:02:33.675Z,80.15
2022-12-08T18:05:37.088Z,70.43
2022-12-08T18:08:40.770Z,73.17
2022-12-08T18:11:44.643Z,79.28
2022-12-08T18:14:48.392Z,83.65
2022-12-08T18:17:51.332Z,72.95
2022-12-08T18:20:54.567Z,77.07
2022-12-08T18:23:57.667Z,54.60
2022-12-08T18:27:00.587Z,61.97
2022-12-08T18:30:04.183Z,53.22
2022-12-08T18:33:08.451Z,50.47
2022-12-08T18:36:15.242Z,53.70
2022-12-08T18:39:29.465Z,62.00
2022-12-08T18:42:32.823Z,92.22
2022-12-08T18:45:38.879Z,73.30
2022-12-08T18:48:47.394Z,65.60
2022-12-08T18:51:50.339Z,51.10
2022-12-08T18:55:09.060Z,41.80
2022-12-08T18:58:15.179Z,40.00
2022-12-08T19:01:19.842Z,37.83
2022-12-08T19:04:31.886Z,35.25
2022-12-08T19:07:36.763Z,36.70
2022-12-08T19:10:39.714Z,40.20
2022-12-08T19:13:42.747Z,24.70
2022-12-08T19:16:46.861Z,31.52
2022-12-08T19:19:50.126Z,28.90
2022-12-08T19:22:53.850Z,25.17
2022-12-08T19:25:56.660Z,23.73
2022-12-08T19:28:59.902Z,25.08
2022-12-08T19:32:05.240Z,24.67
2022-12-08T19:35:08.742Z,23.55
2022-12-08T19:38:11.888Z,33.43
2022-12-08T19:41:33.919Z,28.70
2022-12-08T19:44:55.276Z,26.23
2022-12-08T19:47:58.439Z,26.50
2022-12-08T19:51:01.728Z,27.60
2022-12-08T19:54:05.170Z,26.17
2022-12-08T19:57:08.602Z,28.00
2022-12-08T20:00:13.130Z,24.52
2022-12-08T20:03:17.911Z,26.40
2022-12-08T20:06:23.374Z,34.55
2022-12-08T20:09:26.494Z,36.50
2022-12-08T20:12:29.532Z,32.53
2022-12-08T20:15:32.650Z,32.45
2022-12-08T20:18:37.168Z,30.15
2022-12-08T20:21:41.265Z,28.63
2022-12-08T20:24:44.107Z,26.80
2022-12-08T20:27:47.174Z,28.20
2022-12-08T20:30:50.432Z,27.65
2022-12-08T20:33:53.721Z,27.38
2022-12-08T20:36:56.837Z,26.65
2022-12-08T20:39:59.955Z,25.33
2022-12-08T20:43:03.043Z,24.73
2022-12-08T20:46:09.468Z,24.38
2022-12-08T20:49:13.416Z,25.63
2022-12-08T20:52:16.865Z,26.08
2022-12-08T20:55:20.049Z,27.07
2022-12-08T20:58:23.801Z,24.83
2022-12-08T21:01:27.167Z,26.58
2022-12-08T21:04:30.277Z,25.10
2022-12-08T21:07:34.274Z,24.05
2022-12-08T21:10:42.294Z,24.43
2022-12-08T21:13:47.045Z,23.50
2022-12-08T21:16:51.014Z,25.67
2022-12-08T21:19:54.033Z,26.45
2022-12-08T21:22:56.765Z,25.98
2022-12-08T21:25:59.804Z,23.87
2022-12-08T21:29:02.602Z,25.73
2022-12-08T21:32:05.635Z,24.25
2022-12-08T21:35:09.259Z,25.65
2022-12-08T21:38:12.404Z,26.65
2022-12-08T21:41:37.617Z,24.30
2022-12-08T21:44:40.773Z,23.30
2022-12-08T21:47:44.917Z,26.90
2022-12-08T21:50:48.125Z,25.88
2022-12-08T21:53:51.369Z,25.00
2022-12-08T21:56:54.392Z,23.47
2022-12-08T21:59:57.675Z,23.27
2022-12-08T22:03:00.563Z,24.83
2022-12-08T22:06:11.929Z,24.33
2022-12-08T22:09:15.475Z,25.50
2022-12-08T22:12:18.625Z,24.17
2022-12-08T22:15:21.464Z,23.57
2022-12-08T22:18:24.672Z,24.02
2022-12-08T22:21:27.894Z,25.92
2022-12-08T22:24:31.344Z,25.23
2022-12-08T22:27:34.660Z,25.07
2022-12-08T22:30:39.475Z,22.63
2022-12-08T22:33:42.997Z,24.40
2022-12-08T22:36:46.023Z,24.02
2022-12-08T22:39:48.853Z,23.98
2022-12-08T22:42:51.848Z,29.60
2022-12-08T22:45:54.761Z,31.43
2022-12-08T22:48:57.632Z,28.40
2022-12-08T22:52:00.616Z,28.30
2022-12-08T22:55:03.521Z,27.77
2022-12-08T22:58:06.245Z,30.23
2022-12-08T23:01:09.432Z,29.20
2022-12-08T23:04:17.425Z,30.48
2022-12-08T23:07:20.535Z,22.42
2022-12-08T23:10:23.399Z,22.15
2022-12-08T23:13:26.134Z,23.13
2022-12-08T23:16:29.193Z,19.73
2022-12-08T23:19:32.021Z,19.33
2022-12-08T23:22:34.756Z,20.05
2022-12-08T23:25:41.720Z,19.33
2022-12-08T23:28:44.857Z,18.23
2022-12-08T23:31:47.738Z,18.93
2022-12-08T23:34:50.760Z,19.10
2022-12-08T23:37:53.762Z,18.17
2022-12-08T23:41:02.219Z,19.25
2022-12-08T23:44:05.099Z,19.83
2022-12-08T23:47:08.035Z,19.63
2022-12-08T23:50:12.196Z,19.65
2022-12-08T23:53:15.221Z,20.77
2022-12-08T23:56:18.891Z,21.33
2022-12-08T23:59:21.745Z,20.43
